Time;durP1;ratioP1;P1;durP2;ratioP2;P2;SDS_P1;SDS_P2;PMS_P1;PMS_P2;Temp;Humidity;BMP_temperature;BMP_pressure;BME280_temperature;BME280_humidity;BME280_pressure;Samples;Min_cycle;Max_cycle;Signal;HPM_P1;HPM_P2
2022/12/31 00:00:37;;;;;;;4.70;1.97;;;;;;;10.58;100.00;99294.84;5072733;28;20206;-73
2022/12/31 00:03:04;;;;;;;10.30;4.60;;;;;;;10.66;100.00;99297.47;5072438;28;20183;-72
2022/12/31 00:05:31;;;;;;;4.30;2.70;;;;;;;10.71;100.00;99305.44;5073057;28;20517;-73
2022/12/31 00:07:57;;;;;;;0.33;0.33;;;;;;;10.81;100.00;99298.72;5072710;28;20185;-72
2022/12/31 00:10:22;;;;;;;0.17;0.17;;;;;;;10.85;100.00;99312.50;5071246;28;20271;-73
2022/12/31 00:12:48;;;;;;;1.13;0.30;;;;;;;10.90;100.00;99321.28;5071937;28;20202;-73
2022/12/31 00:15:13;;;;;;;0.10;0.10;;;;;;;10.91;100.00;99328.34;5072801;28;20232;-73
2022/12/31 00:17:38;;;;;;;0.00;0.00;;;;;;;10.87;100.00;99319.22;5072356;28;20232;-73
2022/12/31 00:20:04;;;;;;;0.00;0.00;;;;;;;10.83;100.00;99312.84;5071154;28;20242;-73
2022/12/31 00:22:29;;;;;;;0.00;0.00;;;;;;;10.75;100.00;99310.22;5072275;28;20174;-73
2022/12/31 00:24:55;;;;;;;0.00;0.00;;;;;;;10.79;100.00;99311.13;5072233;28;20182;-73
2022/12/31 00:27:21;;;;;;;0.00;0.00;;;;;;;10.83;100.00;99310.09;5072269;28;20247;-73
2022/12/31 00:29:46;;;;;;;0.00;0.00;;;;;;;10.85;100.00;99315.22;5072083;28;20171;-73
2022/12/31 00:32:12;;;;;;;0.10;0.10;;;;;;;10.84;100.00;99322.63;5072225;28;20257;-73
2022/12/31 00:34:37;;;;;;;0.03;0.03;;;;;;;10.81;100.00;99320.56;5070639;28;20197;-73
2022/12/31 00:37:02;;;;;;;0.00;0.00;;;;;;;10.86;100.00;99322.31;5072182;28;20175;-73
2022/12/31 00:39:27;;;;;;;0.10;0.10;;;;;;;10.90;100.00;99312.28;5071703;28;20270;-73
2022/12/31 00:41:53;;;;;;;0.00;0.00;;;;;;;10.87;100.00;99318.44;5071091;28;20190;-71
2022/12/31 00:44:18;;;;;;;0.13;0.10;;;;;;;10.88;100.00;99320.81;5071705;28;20173;-71
2022/12/31 00:46:44;;;;;;;0.00;0.00;;;;;;;10.97;100.00;99321.50;5071946;28;20174;-73
2022/12/31 00:49:09;;;;;;;0.00;0.00;;;;;;;10.92;100.00;99304.53;5070389;28;20189;-71
2022/12/31 00:51:35;;;;;;;0.20;0.20;;;;;;;10.99;100.00;99312.94;5071825;28;20273;-73
2022/12/31 00:54:00;;;;;;;0.17;0.17;;;;;;;11.00;100.00;99314.56;5071444;28;20170;-73
2022/12/31 00:56:28;;;;;;;0.00;0.00;;;;;;;11.05;100.00;99319.78;5071661;28;20249;-71
2022/12/31 00:58:54;;;;;;;0.10;0.10;;;;;;;11.13;100.00;99320.81;5071720;28;20301;-73
2022/12/31 01:01:27;;;;;;;0.10;0.10;;;;;;;11.13;100.00;99316.13;5071542;28;20223;-73
2022/12/31 01:03:56;;;;;;;0.10;0.10;;;;;;;11.15;100.00;99324.03;5070287;28;20267;-71
2022/12/31 01:06:21;;;;;;;0.10;0.10;;;;;;;11.17;100.00;99333.47;5071519;28;20414;-73
2022/12/31 01:08:48;;;;;;;0.00;0.00;;;;;;;11.17;100.00;99314.34;5071377;28;20178;-73
2022/12/31 01:11:21;;;;;;;0.00;0.00;;;;;;;11.22;100.00;99324.22;5071400;28;20600;-73
2022/12/31 01:13:48;;;;;;;0.00;0.00;;;;;;;11.22;100.00;99333.22;5071137;28;20159;-71
2022/12/31 01:16:14;;;;;;;0.10;0.10;;;;;;;11.19;100.00;99336.66;5071424;28;20171;-71
2022/12/31 01:18:40;;;;;;;0.00;0.00;;;;;;;11.13;100.00;99337.22;5071289;28;20634;-74
2022/12/31 01:21:07;;;;;;;0.20;0.20;;;;;;;11.01;100.00;99343.50;5071344;28;20209;-71
2022/12/31 01:23:33;;;;;;;0.30;0.10;;;;;;;10.94;100.00;99351.44;5070345;28;20190;-71
2022/12/31 01:26:00;;;;;;;0.00;0.00;;;;;;;10.89;100.00;99332.56;5071062;28;20178;-71
2022/12/31 01:28:26;;;;;;;0.00;0.00;;;;;;;10.83;100.00;99353.03;5071296;28;20623;-71
2022/12/31 01:30:51;;;;;;;0.00;0.00;;;;;;;10.87;100.00;99351.22;5070765;28;20254;-73
2022/12/31 01:33:17;;;;;;;0.00;0.00;;;;;;;10.84;100.00;99354.63;5070902;28;20253;-73
2022/12/31 01:35:43;;;;;;;0.23;0.23;;;;;;;10.78;100.00;99336.84;5070853;28;20179;-73
2022/12/31 01:38:08;;;;;;;0.00;0.00;;;;;;;10.73;100.00;99337.88;5071181;28;20258;-73
2022/12/31 01:40:38;;;;;;;0.17;0.17;;;;;;;10.78;100.00;99328.66;5070831;28;20224;-73
2022/12/31 01:43:15;;;;;;;0.30;0.20;;;;;;;10.78;100.00;99326.72;5070630;28;20175;-74
2022/12/31 01:45:42;;;;;;;0.00;0.00;;;;;;;10.76;100.00;99326.28;5070873;28;20278;-73
2022/12/31 01:48:11;;;;;;;0.00;0.00;;;;;;;10.85;100.00;99326.97;5069544;28;20182;-73
2022/12/31 01:50:38;;;;;;;0.10;0.10;;;;;;;10.90;100.00;99323.22;5070886;28;20189;-71
2022/12/31 01:53:07;;;;;;;0.10;0.10;;;;;;;10.96;100.00;99328.09;5070427;28;20200;-71
2022/12/31 01:55:37;;;;;;;0.23;0.10;;;;;;;11.01;100.00;99313.44;5070527;28;20316;-71
2022/12/31 01:58:11;;;;;;;0.00;0.00;;;;;;;11.07;100.00;99322.19;5070687;28;20167;-73
2022/12/31 02:00:37;;;;;;;0.00;0.00;;;;;;;11.07;100.00;99322.97;5070682;28;20263;-73
2022/12/31 02:03:05;;;;;;;0.00;0.00;;;;;;;11.11;100.00;99312.94;5070559;28;20210;-71
2022/12/31 02:05:34;;;;;;;0.00;0.00;;;;;;;11.17;100.00;99317.06;5070309;28;20257;-71
2022/12/31 02:07:59;;;;;;;0.00;0.00;;;;;;;11.29;100.00;99316.25;5070704;28;20257;-71
2022/12/31 02:10:24;;;;;;;0.00;0.00;;;;;;;11.31;100.00;99316.72;5070400;28;20176;-71
2022/12/31 02:12:51;;;;;;;0.10;0.10;;;;;;;11.38;100.00;99321.59;5070361;28;20171;-72
2022/12/31 02:15:20;;;;;;;0.00;0.00;;;;;;;11.42;100.00;99309.59;5070305;28;20166;-71
2022/12/31 02:18:01;;;;;;;0.00;0.00;;;;;;;11.43;100.00;99311.22;5070246;28;20189;-71
2022/12/31 02:20:41;;;;;;;0.00;0.00;;;;;;;11.44;100.00;99315.56;5070647;28;20198;-71
2022/12/31 02:23:32;;;;;;;0.00;0.00;;;;;;;11.37;100.00;99306.31;5069049;28;20202;-71
2022/12/31 02:26:03;;;;;;;0.00;0.00;;;;;;;11.38;100.00;99307.91;5070226;28;20183;-71
2022/12/31 02:29:01;;;;;;;0.10;0.10;;;;;;;11.39;100.00;99301.31;5070238;28;20193;-73
2022/12/31 02:31:44;;;;;;;0.00;0.00;;;;;;;11.34;100.00;99291.41;5070358;28;20170;-71
2022/12/31 02:34:41;;;;;;;0.00;0.00;;;;;;;11.31;100.00;99297.56;5070379;28;20171;-71
2022/12/31 02:37:11;;;;;;;0.00;0.00;;;;;;;11.32;100.00;99302.69;5074346;28;20258;-71
2022/12/31 02:39:37;;;;;;;0.17;0.17;;;;;;;11.26;100.00;99287.66;5072978;28;20174;-72
2022/12/31 02:42:02;;;;;;;0.00;0.00;;;;;;;11.16;100.00;99290.06;5073005;28;20179;-72
2022/12/31 02:44:32;;;;;;;0.00;0.00;;;;;;;11.15;100.00;99281.06;5074001;28;20249;-71
2022/12/31 02:47:06;;;;;;;0.20;0.20;;;;;;;11.22;100.00;99281.28;5074072;28;20202;-71
2022/12/31 02:49:42;;;;;;;0.10;0.10;;;;;;;11.29;100.00;99280.72;5074330;28;20183;-72
2022/12/31 02:52:13;;;;;;;0.40;0.37;;;;;;;11.30;100.00;99276.84;5074078;28;20174;-71
2022/12/31 02:54:55;;;;;;;0.00;0.00;;;;;;;11.27;100.00;99272.03;5073596;28;20193;-71
2022/12/31 02:57:40;;;;;;;0.00;0.00;;;;;;;11.30;100.00;99274.91;5073967;28;20162;-71
2022/12/31 03:02:54;;;;;;;0.00;0.00;;;;;;;11.38;100.00;99283.31;5073828;28;20178;-72
2022/12/31 03:05:23;;;;;;;0.00;0.00;;;;;;;11.45;100.00;99292.53;5073783;28;20173;-72
2022/12/31 03:07:48;;;;;;;0.27;0.20;;;;;;;11.40;100.00;99281.81;5072452;28;20178;-71
2022/12/31 03:10:14;;;;;;;0.43;0.17;;;;;;;11.44;100.00;99282.72;5073775;28;20195;-72
2022/12/31 03:12:45;;;;;;;0.10;0.10;;;;;;;11.48;100.00;99301.97;5073698;28;20285;-71
2022/12/31 03:15:21;;;;;;;0.00;0.00;;;;;;;11.42;100.00;99281.47;5073654;28;20182;-71
2022/12/31 03:17:52;;;;;;;0.00;0.00;;;;;;;11.30;100.00;99272.16;5073542;28;20228;-72
2022/12/31 03:23:07;;;;;;;0.00;0.00;;;;;;;11.24;100.00;99248.91;5073370;28;20625;-71
2022/12/31 03:25:37;;;;;;;0.00;0.00;;;;;;;11.20;100.00;99248.03;5072040;28;20170;-72
2022/12/31 03:28:15;;;;;;;0.00;0.00;;;;;;;11.25;100.00;99246.97;5072141;28;20186;-71
2022/12/31 03:30:43;;;;;;;0.00;0.00;;;;;;;11.26;100.00;99243.91;5073415;28;20586;-72
2022/12/31 03:33:08;;;;;;;0.00;0.00;;;;;;;11.24;100.00;99235.25;5072989;28;20203;-72
2022/12/31 03:35:36;;;;;;;0.10;0.03;;;;;;;11.29;100.00;99235.03;5073071;28;20204;-71
2022/12/31 03:38:02;;;;;;;0.00;0.00;;;;;;;11.25;100.00;99217.69;5073214;28;20228;-72
2022/12/31 03:40:29;;;;;;;0.00;0.00;;;;;;;11.25;100.00;99208.69;5073027;28;20194;-71
2022/12/31 03:42:55;;;;;;;0.00;0.00;;;;;;;11.22;100.00;99209.41;5072951;28;20181;-72
2022/12/31 03:45:20;;;;;;;0.00;0.00;;;;;;;11.10;100.00;99203.97;5071663;28;20183;-71
2022/12/31 03:47:46;;;;;;;0.00;0.00;;;;;;;11.19;100.00;99188.22;5072038;28;20171;-72
2022/12/31 03:50:13;;;;;;;0.00;0.00;;;;;;;11.16;100.00;99194.41;5072935;28;20179;-72
2022/12/31 03:52:39;;;;;;;0.00;0.00;;;;;;;11.22;100.00;99190.25;5072870;28;20170;-72
2022/12/31 03:55:05;;;;;;;0.10;0.10;;;;;;;11.27;100.00;99196.28;5071559;28;20174;-72
2022/12/31 03:57:31;;;;;;;0.00;0.00;;;;;;;11.36;100.00;99195.34;5071730;28;20256;-71
2022/12/31 03:59:56;;;;;;;8.80;0.20;;;;;;;11.45;100.00;99194.06;5072657;28;20589;-72
2022/12/31 04:02:23;;;;;;;0.00;0.00;;;;;;;11.45;100.00;99190.53;5072803;28;20191;-71
2022/12/31 04:04:48;;;;;;;0.00;0.00;;;;;;;11.49;100.00;99196.91;5072460;28;20181;-71
2022/12/31 04:07:14;;;;;;;0.00;0.00;;;;;;;11.51;100.00;99186.41;5072682;28;20254;-72
2022/12/31 04:09:39;;;;;;;0.00;0.00;;;;;;;11.53;100.00;99176.69;5072639;28;20214;-71
2022/12/31 04:12:04;;;;;;;0.00;0.00;;;;;;;11.60;100.00;99198.00;5072536;28;20177;-71
2022/12/31 04:14:30;;;;;;;0.00;0.00;;;;;;;11.69;100.00;99184.94;5072237;28;20499;-71
2022/12/31 04:16:55;;;;;;;0.10;0.10;;;;;;;11.66;100.00;99174.72;5072418;28;20175;-72
2022/12/31 04:19:20;;;;;;;0.27;0.20;;;;;;;11.71;100.00;99155.28;5071072;28;20206;-72
2022/12/31 04:21:46;;;;;;;0.00;0.00;;;;;;;11.81;100.00;99170.44;5072311;28;20574;-72
2022/12/31 04:24:11;;;;;;;0.00;0.00;;;;;;;11.90;100.00;99158.19;5072192;28;20229;-71
2022/12/31 04:26:37;;;;;;;0.50;0.47;;;;;;;12.00;100.00;99147.84;5072150;28;20175;-71
2022/12/31 04:29:03;;;;;;;0.00;0.00;;;;;;;12.08;100.00;99153.16;5072406;28;20174;-71
2022/12/31 04:31:28;;;;;;;0.00;0.00;;;;;;;12.22;100.00;99158.19;5072515;28;20538;-71
2022/12/31 04:33:53;;;;;;;0.00;0.00;;;;;;;12.24;100.00;99161.38;5071871;28;20531;-71
2022/12/31 04:36:19;;;;;;;0.00;0.00;;;;;;;12.30;100.00;99154.50;5071940;28;20213;-71
2022/12/31 04:38:44;;;;;;;0.37;0.20;;;;;;;12.35;100.00;99161.66;5070642;28;20179;-71
2022/12/31 04:41:15;;;;;;;0.00;0.00;;;;;;;12.47;100.00;99164.28;5070547;28;20203;-71
2022/12/31 04:43:42;;;;;;;5.00;0.17;;;;;;;12.67;100.00;99160.44;5071676;28;20178;-71
2022/12/31 04:46:08;;;;;;;0.00;0.00;;;;;;;12.70;100.00;99175.38;5072049;28;20200;-72
2022/12/31 04:48:34;;;;;;;0.00;0.00;;;;;;;12.71;100.00;99177.75;5071849;28;20179;-72
2022/12/31 04:50:59;;;;;;;0.03;0.00;;;;;;;12.74;100.00;99179.00;5070046;28;20206;-72
2022/12/31 04:53:25;;;;;;;0.00;0.00;;;;;;;12.75;100.00;99175.91;5071617;28;20479;-71
2022/12/31 04:55:51;;;;;;;0.00;0.00;;;;;;;12.77;100.00;99168.13;5071584;28;20697;-71
2022/12/31 04:58:16;;;;;;;0.00;0.00;;;;;;;12.84;100.00;99175.69;5070811;28;20465;-71
2022/12/31 05:00:41;;;;;;;0.00;0.00;;;;;;;12.94;100.00;99174.34;5071424;28;20205;-71
2022/12/31 05:03:07;;;;;;;0.00;0.00;;;;;;;13.04;100.00;99171.84;5071015;28;20182;-72
2022/12/31 05:05:32;;;;;;;0.00;0.00;;;;;;;13.14;100.00;99172.44;5071382;28;20388;-72
2022/12/31 05:07:57;;;;;;;1.90;0.00;;;;;;;13.22;100.00;99166.78;5071770;28;20171;-71
2022/12/31 05:10:23;;;;;;;0.10;0.10;;;;;;;13.25;100.00;99181.72;5071303;28;20174;-71
2022/12/31 05:12:48;;;;;;;0.00;0.00;;;;;;;13.29;100.00;99177.09;5069956;28;20174;-72
2022/12/31 05:15:13;;;;;;;0.00;0.00;;;;;;;13.40;100.00;99186.34;5071224;28;20177;-71
2022/12/31 05:17:39;;;;;;;0.00;0.00;;;;;;;13.55;100.00;99193.69;5071173;28;20177;-71
2022/12/31 05:20:05;;;;;;;0.07;0.00;;;;;;;13.58;100.00;99194.91;5071116;28;20202;-72
2022/12/31 05:22:30;;;;;;;0.00;0.00;;;;;;;13.66;100.00;99197.44;5070906;28;20599;-72
2022/12/31 05:24:57;;;;;;;0.00;0.00;;;;;;;13.83;100.00;99214.63;5070849;28;20178;-71
2022/12/31 05:27:23;;;;;;;0.00;0.00;;;;;;;13.82;100.00;99240.50;5070891;28;20543;-71
2022/12/31 05:29:48;;;;;;;0.07;0.03;;;;;;;13.76;100.00;99248.25;5070847;28;20170;-71
2022/12/31 05:32:14;;;;;;;0.00;0.00;;;;;;;13.75;100.00;99252.16;5071052;28;20166;-71
2022/12/31 05:34:39;;;;;;;0.00;0.00;;;;;;;13.58;100.00;99258.84;5070622;28;20464;-72
2022/12/31 05:37:04;;;;;;;0.00;0.00;;;;;;;13.31;100.00;99257.09;5070767;28;20202;-71
2022/12/31 05:39:29;;;;;;;0.00;0.00;;;;;;;12.96;100.00;99260.56;5070813;28;20179;-72
2022/12/31 05:41:55;;;;;;;0.00;0.00;;;;;;;12.73;100.00;99254.97;5070598;28;20687;-71
2022/12/31 05:44:20;;;;;;;0.00;0.00;;;;;;;12.58;100.00;99249.47;5070711;28;20224;-72
2022/12/31 05:46:48;;;;;;;0.00;0.00;;;;;;;12.52;100.00;99254.41;5070803;28;20170;-71
2022/12/31 05:49:13;;;;;;;0.00;0.00;;;;;;;12.47;100.00;99260.97;5070689;28;20187;-72
2022/12/31 05:51:39;;;;;;;0.00;0.00;;;;;;;12.42;100.00;99272.16;5070679;28;20182;-72
2022/12/31 05:54:04;;;;;;;0.17;0.17;;;;;;;12.33;100.00;99274.28;5070280;28;20183;-72
2022/12/31 05:56:29;;;;;;;0.00;0.00;;;;;;;12.21;100.00;99271.63;5070677;28;20193;-72
2022/12/31 05:58:55;;;;;;;0.00;0.00;;;;;;;12.20;100.00;99265.34;5070504;28;20235;-72
2022/12/31 06:01:20;;;;;;;0.00;0.00;;;;;;;12.15;100.00;99283.97;5070350;28;20209;-72
2022/12/31 06:03:45;;;;;;;0.00;0.00;;;;;;;12.13;100.00;99275.31;5070276;28;20243;-72
2022/12/31 06:06:11;;;;;;;0.00;0.00;;;;;;;12.10;100.00;99263.13;5070401;28;20170;-72
2022/12/31 06:08:36;;;;;;;0.00;0.00;;;;;;;12.11;100.00;99259.22;5070503;28;20534;-72
2022/12/31 06:11:02;;;;;;;0.00;0.00;;;;;;;12.09;100.00;99267.00;5070039;28;20182;-72
2022/12/31 06:13:27;;;;;;;0.00;0.00;;;;;;;12.05;100.00;99262.59;5068502;28;20209;-72
2022/12/31 06:15:53;;;;;;;0.40;0.20;;;;;;;12.05;100.00;99263.38;5069565;28;20174;-72
2022/12/31 06:18:18;;;;;;;0.00;0.00;;;;;;;12.05;100.00;99259.84;5071295;28;20255;-72
2022/12/31 06:20:43;;;;;;;0.13;0.13;;;;;;;12.05;100.00;99257.09;5073119;28;20206;-72
2022/12/31 06:23:09;;;;;;;0.30;0.20;;;;;;;11.98;100.00;99245.97;5072318;28;20246;-72
2022/12/31 06:25:35;;;;;;;0.00;0.00;;;;;;;11.94;100.00;99251.34;5071502;28;20267;-71
2022/12/31 06:28:01;;;;;;;0.10;0.10;;;;;;;11.88;100.00;99253.53;5071276;28;20638;-72
2022/12/31 06:30:27;;;;;;;0.00;0.00;;;;;;;11.89;100.00;99248.88;5070659;28;20178;-72
2022/12/31 06:32:54;;;;;;;0.00;0.00;;;;;;;11.88;100.00;99245.34;5070069;28;20169;-72
2022/12/31 06:35:19;;;;;;;0.20;0.20;;;;;;;11.87;100.00;99245.69;5070481;28;20183;-72
2022/12/31 06:37:44;;;;;;;0.00;0.00;;;;;;;11.84;100.00;99241.69;5070232;28;20217;-72
2022/12/31 06:40:10;;;;;;;0.00;0.00;;;;;;;11.86;100.00;99239.41;5070048;28;20205;-74
2022/12/31 06:42:35;;;;;;;0.00;0.00;;;;;;;11.83;100.00;99233.81;5069835;28;20562;-74
2022/12/31 06:45:01;;;;;;;0.00;0.00;;;;;;;11.74;100.00;99236.69;5068849;28;20175;-74
2022/12/31 06:47:26;;;;;;;0.00;0.00;;;;;;;11.80;100.00;99220.84;5069919;28;20539;-74
2022/12/31 06:49:52;;;;;;;0.00;0.00;;;;;;;11.80;100.00;99238.06;5068699;28;20672;-73
2022/12/31 06:52:17;;;;;;;0.00;0.00;;;;;;;11.85;100.00;99240.53;5069911;28;20194;-73
2022/12/31 06:54:43;;;;;;;0.00;0.00;;;;;;;11.94;100.00;99231.38;5069549;28;20686;-73
2022/12/31 06:57:09;;;;;;;0.00;0.00;;;;;;;12.03;100.00;99237.50;5069727;28;20167;-73
2022/12/31 06:59:35;;;;;;;0.00;0.00;;;;;;;12.08;100.00;99238.03;5069880;28;20701;-73
2022/12/31 07:02:13;;;;;;;0.00;0.00;;;;;;;12.25;100.00;99223.22;5069702;28;20207;-73
2022/12/31 07:05:24;;;;;;;1.10;0.30;;;;;;;12.44;100.00;99214.28;5069508;28;20182;-73
2022/12/31 07:08:05;;;;;;;1.60;0.40;;;;;;;12.61;100.00;99215.88;5049754;28;20186;-73
2022/12/31 07:10:55;;;;;;;0.10;0.10;;;;;;;12.68;100.00;99207.81;5069876;28;20177;-73
2022/12/31 07:13:32;;;;;;;0.00;0.00;;;;;;;12.91;100.00;99221.69;5069529;28;20206;-72
2022/12/31 07:16:34;;;;;;;0.20;0.20;;;;;;;13.29;100.00;99229.19;5069472;28;20685;-72
2022/12/31 07:19:14;;;;;;;0.53;0.20;;;;;;;13.57;100.00;99232.53;5068535;28;20178;-72
2022/12/31 07:21:42;;;;;;;0.00;0.00;;;;;;;13.76;100.00;99248.25;5070327;28;20198;-72
2022/12/31 07:24:09;;;;;;;0.00;0.00;;;;;;;13.89;100.00;99235.16;5073275;28;20550;-72
2022/12/31 07:26:43;;;;;;;1.50;1.27;;;;;;;14.02;100.00;99247.53;5079714;28;20185;-73
2022/12/31 07:29:39;;;;;;;1.63;0.57;;;;;;;14.21;100.00;99257.72;5073580;28;20658;-73
2022/12/31 07:32:39;;;;;;;0.20;0.17;;;;;;;14.35;100.00;99271.72;5073483;28;20257;-73
2022/12/31 07:35:17;;;;;;;0.13;0.13;;;;;;;14.44;100.00;99275.03;5073192;28;20174;-73
2022/12/31 07:38:10;;;;;;;0.10;0.10;;;;;;;14.47;100.00;99276.28;5072179;28;20798;-73
2022/12/31 07:40:53;;;;;;;0.47;0.07;;;;;;;14.45;100.00;99273.06;5072843;28;20568;-73
2022/12/31 07:43:27;;;;;;;7.30;0.60;;;;;;;14.66;100.00;99280.91;5071982;28;20577;-72
2022/12/31 07:46:06;;;;;;;0.20;0.20;;;;;;;14.66;100.00;99278.97;5072611;28;20165;-73
2022/12/31 07:48:31;;;;;;;0.10;0.00;;;;;;;14.83;100.00;99286.69;5072923;28;20202;-72
2022/12/31 07:50:57;;;;;;;0.10;0.10;;;;;;;14.82;100.00;99293.38;5073246;28;20699;-73
2022/12/31 07:53:24;;;;;;;0.23;0.20;;;;;;;14.87;100.00;99312.28;5072469;28;20579;-73
2022/12/31 07:55:55;;;;;;;0.00;0.00;;;;;;;15.04;100.00;99313.75;5071229;28;20182;-73
2022/12/31 07:58:50;;;;;;;0.93;0.13;;;;;;;15.07;100.00;99329.53;5071431;28;20167;-72
2022/12/31 08:01:25;;;;;;;0.20;0.10;;;;;;;15.17;100.00;99315.13;5071565;28;20206;-73
2022/12/31 08:04:07;;;;;;;0.00;0.00;;;;;;;15.23;99.11;99310.13;5072282;28;20234;-73
2022/12/31 08:06:50;;;;;;;0.00;0.00;;;;;;;15.21;98.96;99317.97;5072441;28;20471;-73
2022/12/31 08:09:45;;;;;;;0.10;0.03;;;;;;;15.28;98.27;99336.53;5072471;28;20220;-72
2022/12/31 08:12:11;;;;;;;0.10;0.10;;;;;;;15.30;98.18;99359.75;5072831;28;20174;-72
2022/12/31 08:14:45;;;;;;;0.97;0.17;;;;;;;15.25;98.38;99357.31;5072028;28;20281;-72
2022/12/31 08:17:15;;;;;;;0.00;0.00;;;;;;;15.21;99.31;99337.22;5071915;28;20162;-72
2022/12/31 08:19:41;;;;;;;0.70;0.20;;;;;;;15.21;99.67;99353.72;5072329;28;20258;-74
2022/12/31 08:22:28;;;;;;;0.10;0.10;;;;;;;15.29;98.58;99344.41;5072177;28;20772;-74
2022/12/31 08:25:26;;;;;;;0.13;0.13;;;;;;;15.44;96.91;99351.72;5072260;28;20224;-73
2022/12/31 08:28:09;;;;;;;1.20;0.47;;;;;;;15.45;95.92;99336.78;5026985;28;20182;-72
2022/12/31 08:30:55;;;;;;;0.07;0.07;;;;;;;15.51;95.62;99353.00;5070813;28;20321;-72
2022/12/31 08:33:37;;;;;;;3.70;0.20;;;;;;;15.62;94.66;99371.28;5071375;28;20181;-72
2022/12/31 08:36:05;;;;;;;0.10;0.10;;;;;;;15.57;94.70;99374.31;5071697;28;20170;-72
2022/12/31 08:38:46;;;;;;;0.20;0.20;;;;;;;15.48;96.18;99382.06;5071791;28;20198;-72
2022/12/31 08:41:36;;;;;;;0.00;0.00;;;;;;;15.31;97.83;99383.34;5071719;28;20274;-73
2022/12/31 08:44:04;;;;;;;0.07;0.07;;;;;;;15.20;99.39;99393.41;5071412;28;20202;-72
2022/12/31 08:46:54;;;;;;;0.73;0.20;;;;;;;15.15;100.00;99393.72;5071727;28;20178;-72
2022/12/31 08:49:19;;;;;;;0.00;0.00;;;;;;;15.12;100.00;99399.94;5053728;28;20634;-73
2022/12/31 08:51:45;;;;;;;0.47;0.20;;;;;;;15.05;100.00;99402.59;5071461;28;20175;-73
2022/12/31 08:54:11;;;;;;;11.33;0.40;;;;;;;14.98;100.00;99395.00;5071241;28;20181;-72
2022/12/31 08:56:52;;;;;;;0.93;0.20;;;;;;;15.02;100.00;99411.56;5071467;28;20174;-72
2022/12/31 08:59:43;;;;;;;0.00;0.00;;;;;;;14.92;100.00;99414.94;5071333;28;20263;-72
2022/12/31 09:02:09;;;;;;;2.47;0.10;;;;;;;14.89;100.00;99419.97;5071313;28;20607;-74
2022/12/31 09:05:05;;;;;;;0.03;0.03;;;;;;;14.89;100.00;99422.72;5070889;28;20194;-71
2022/12/31 09:07:50;;;;;;;5.30;0.20;;;;;;;14.86;100.00;99412.47;5069442;28;20328;-71
2022/12/31 09:10:38;;;;;;;0.13;0.13;;;;;;;14.88;100.00;99415.63;5068622;28;20722;-72
2022/12/31 09:13:34;;;;;;;0.43;0.20;;;;;;;14.88;100.00;99414.84;5070644;28;20198;-71
2022/12/31 09:16:24;;;;;;;0.10;0.10;;;;;;;14.95;100.00;99419.69;5063935;28;20262;-71
2022/12/31 09:18:49;;;;;;;0.13;0.13;;;;;;;14.94;100.00;99418.91;5069759;28;20171;-75
2022/12/31 09:21:15;;;;;;;0.17;0.17;;;;;;;14.95;100.00;99416.94;5070894;28;20202;-74
2022/12/31 09:23:41;;;;;;;0.20;0.20;;;;;;;14.96;100.00;99418.53;5070527;28;20488;-74
2022/12/31 09:26:18;;;;;;;0.00;0.00;;;;;;;15.02;100.00;99428.06;5070949;28;20170;-81
2022/12/31 09:29:09;;;;;;;0.00;0.00;;;;;;;15.08;100.00;99434.88;5070819;28;20642;-72
2022/12/31 09:31:48;;;;;;;0.20;0.13;;;;;;;15.11;100.00;99434.91;5070911;28;20170;-72
2022/12/31 09:34:32;;;;;;;0.00;0.00;;;;;;;15.11;100.00;99437.66;5070298;28;20178;-72
2022/12/31 09:37:21;;;;;;;0.10;0.10;;;;;;;15.10;100.00;99427.03;5070620;28;20177;-72
2022/12/31 09:39:47;;;;;;;0.33;0.33;;;;;;;15.11;100.00;99423.13;5070664;28;20634;-72
2022/12/31 09:42:19;;;;;;;0.00;0.00;;;;;;;15.07;100.00;99428.56;5070396;28;20665;-72
2022/12/31 09:44:50;;;;;;;0.10;0.10;;;;;;;15.21;99.48;99430.78;5069755;28;20194;-72
2022/12/31 09:47:40;;;;;;;0.30;0.30;;;;;;;15.28;98.50;99422.63;5070446;28;20179;-72
2022/12/31 09:50:21;;;;;;;0.00;0.00;;;;;;;15.36;97.82;99429.06;5070530;28;20186;-72
2022/12/31 09:53:21;;;;;;;0.00;0.00;;;;;;;15.46;96.82;99464.19;5070168;28;20662;-72
2022/12/31 09:56:04;;;;;;;0.00;0.00;;;;;;;15.60;94.85;99433.38;5070309;28;20691;-73
2022/12/31 09:58:44;;;;;;;0.00;0.00;;;;;;;15.50;95.49;99426.53;5070474;28;20175;-73
2022/12/31 10:01:26;;;;;;;0.20;0.20;;;;;;;15.66;94.04;99429.97;5070225;28;20202;-74
2022/12/31 10:04:09;;;;;;;2.23;0.20;;;;;;;15.67;93.23;99436.25;5070141;28;20186;-75
2022/12/31 10:07:11;;;;;;;0.00;0.00;;;;;;;15.70;92.98;99416.25;5070305;28;20626;-75
2022/12/31 10:09:51;;;;;;;0.13;0.03;;;;;;;15.79;92.08;99421.50;5070820;28;20188;-74
2022/12/31 10:12:58;;;;;;;0.13;0.10;;;;;;;15.89;90.79;99409.81;5070274;28;20709;-74
2022/12/31 10:15:47;;;;;;;0.20;0.10;;;;;;;16.12;88.18;99396.75;5035199;28;20190;-73
2022/12/31 10:18:13;;;;;;;0.30;0.30;;;;;;;16.21;86.90;99407.50;5070324;28;20654;-74
2022/12/31 10:21:15;;;;;;;0.10;0.10;;;;;;;16.21;86.90;99396.50;5070266;28;20202;-76
2022/12/31 10:24:21;;;;;;;0.00;0.00;;;;;;;16.28;86.06;99402.06;5068468;28;20178;-73
2022/12/31 10:27:02;;;;;;;1.60;0.20;;;;;;;16.26;85.89;99412.69;5069031;28;20182;-73
2022/12/31 10:29:45;;;;;;;0.00;0.00;;;;;;;16.28;85.56;99415.84;5070996;28;20166;-72
2022/12/31 10:32:33;;;;;;;1.17;0.80;;;;;;;16.38;84.52;99393.16;5070883;28;20232;-72
2022/12/31 10:35:13;;;;;;;0.00;0.00;;;;;;;16.34;84.34;99406.06;5070650;28;20379;-72
2022/12/31 10:37:51;;;;;;;2.13;0.20;;;;;;;16.36;84.14;99409.28;5069998;28;20174;-73
2022/12/31 10:41:05;;;;;;;0.20;0.20;;;;;;;16.34;84.27;99404.09;5069954;28;20288;-73
2022/12/31 10:43:54;;;;;;;0.40;0.40;;;;;;;16.45;82.33;99407.00;5062664;28;20714;-73
2022/12/31 10:46:57;;;;;;;0.43;0.20;;;;;;;16.61;81.28;99421.38;5069989;28;20183;-73
2022/12/31 10:49:43;;;;;;;0.20;0.20;;;;;;;16.58;81.28;99405.56;5069940;28;20181;-73
2022/12/31 10:52:31;;;;;;;0.40;0.40;;;;;;;16.57;81.31;99412.25;5069981;28;20701;-74
2022/12/31 10:55:34;;;;;;;0.83;0.30;;;;;;;16.65;80.31;99411.19;5028335;28;20288;-73
2022/12/31 10:58:27;;;;;;;0.40;0.40;;;;;;;16.57;80.85;99398.47;5073900;28;20174;-73
2022/12/31 11:01:04;;;;;;;1.73;0.80;;;;;;;16.61;80.82;99435.16;5073946;28;20201;-73
2022/12/31 11:04:07;;;;;;;0.77;0.30;;;;;;;16.62;80.77;99398.13;5073376;28;20186;-73
2022/12/31 11:07:01;;;;;;;0.77;0.20;;;;;;;16.73;79.83;99406.56;5073581;28;20170;-74
2022/12/31 11:09:32;;;;;;;0.23;0.17;;;;;;;16.68;80.20;99417.94;5073551;28;20219;-74
2022/12/31 11:12:16;;;;;;;0.13;0.10;;;;;;;16.61;80.53;99435.16;5073265;28;20669;-74
2022/12/31 11:15:10;;;;;;;0.30;0.30;;;;;;;16.62;80.67;99420.19;5073697;28;20221;-72
2022/12/31 11:17:52;;;;;;;0.00;0.00;;;;;;;16.58;81.22;99435.13;5073267;28;20206;-73
2022/12/31 11:20:49;;;;;;;0.63;0.40;;;;;;;16.61;81.19;99437.91;5073106;28;20194;-73
2022/12/31 11:23:22;;;;;;;0.60;0.40;;;;;;;16.62;81.36;99447.78;5072971;28;20656;-73
2022/12/31 11:26:09;;;;;;;0.40;0.40;;;;;;;16.61;81.20;99459.19;5073164;28;20174;-72
2022/12/31 11:29:17;;;;;;;0.30;0.30;;;;;;;16.62;81.00;99463.53;5071578;28;20604;-73
2022/12/31 11:31:43;;;;;;;0.97;0.50;;;;;;;16.59;80.79;99462.31;5073071;28;20179;-73
2022/12/31 11:34:37;;;;;;;0.80;0.20;;;;;;;16.52;81.69;99472.47;5072766;28;20597;-73
2022/12/31 11:37:08;;;;;;;0.40;0.40;;;;;;;16.49;82.14;99474.03;5065080;28;20757;-73
2022/12/31 11:39:49;;;;;;;2.87;0.40;;;;;;;16.49;82.15;99485.06;5071644;28;20186;-73
2022/12/31 11:42:17;;;;;;;0.30;0.30;;;;;;;16.49;82.27;99487.00;5072756;28;20504;-73
2022/12/31 11:44:56;;;;;;;1.30;0.40;;;;;;;16.44;82.54;99496.41;5072784;28;20385;-73
2022/12/31 11:47:39;;;;;;;0.17;0.17;;;;;;;16.46;82.41;99501.53;5071294;28;20179;-74
2022/12/31 11:50:28;;;;;;;0.83;0.40;;;;;;;16.52;82.11;99494.53;5072758;28;20190;-74
2022/12/31 11:53:26;;;;;;;0.33;0.30;;;;;;;16.55;81.61;99505.63;5072704;28;20241;-73
2022/12/31 11:56:18;;;;;;;0.87;0.40;;;;;;;16.56;81.55;99515.47;5072533;28;20178;-74
2022/12/31 11:58:54;;;;;;;1.37;0.77;;;;;;;16.54;81.72;99512.28;5072508;28;20202;-74
2022/12/31 12:01:34;;;;;;;1.13;0.57;;;;;;;16.51;81.98;99526.84;5072558;28;20282;-75